Startpagina
METAR-TAF:

METAR-TAF

Vliegvelden :

Hohenfels, Duitsland

breedte: 49-13N, lengte: 011-50E, hoogte: 442 m

Actueel weer

Dit bericht is 27 minuten geleden gemaakt, om 23:26 UTC
Wind 5 kt uit het westzuidwesten
Temperatuur 10°C
Vochtigheid 87%
Druk 1004 hPa
Zicht 10 km of meer
Weinig wolken op 1700 ft
Geheel bewolkt op 2800 ft

METAR: ETIH 052326Z AUTO 24005KT 9999 FEW017 OVC028 10/08 A2965 RMK AO2 DZE2256DZB2257E04RAB04E21 CIG 024V030 SLP043 $

Tijdstip: 01:53 (23:53 UTC)


TAF: ontbreekt

Waarnemingen en weersverwachtingen van meer dan 4000 vliegvelden (METAR en TAF).

De beschikbare stations zijn de gele en rode punten op de kaart.

Ga met uw muis naar het station om de naam te zien.

Klik dan om waarnemingen en weersverwachtingen te zien.

kaart wijzigen: klik op de groene knoppen met een zwart kruis om in te zoomen, op de groene knop met een streepje om uit te zoomen of op de groene pijlen voor aangrenzende kaarten.


METAR-TAF: